createdAt,value
2023-03-12T00:00:12.610Z,40.14
2023-03-12T00:02:45.366Z,40.14
2023-03-12T00:05:19.508Z,39.26
2023-03-12T00:07:50.997Z,39.46
2023-03-12T00:10:24.142Z,39.08
2023-03-12T00:12:54.423Z,39.34
2023-03-12T00:15:25.118Z,39.94
2023-03-12T00:17:57.053Z,40.53
2023-03-12T00:20:28.060Z,39.98
2023-03-12T00:22:58.836Z,39.42
2023-03-12T00:25:30.259Z,39.73
2023-03-12T00:28:01.360Z,40.08
2023-03-12T00:30:32.403Z,40.13
2023-03-12T00:33:05.499Z,40.00
2023-03-12T00:35:35.866Z,39.85
2023-03-12T00:38:07.257Z,40.44
2023-03-12T00:40:39.872Z,40.08
2023-03-12T00:43:13.226Z,39.64
2023-03-12T00:45:44.188Z,39.74
2023-03-12T00:48:16.755Z,41.14
2023-03-12T00:50:47.253Z,40.96
2023-03-12T00:53:16.884Z,41.54
2023-03-12T00:55:47.889Z,41.46
2023-03-12T00:58:18.078Z,41.00
2023-03-12T01:00:48.721Z,40.88
2023-03-12T01:03:22.334Z,40.52
2023-03-12T01:05:56.288Z,41.29
2023-03-12T01:08:26.550Z,42.36
2023-03-12T01:10:56.885Z,40.82
2023-03-12T01:13:27.619Z,41.92
2023-03-12T01:15:57.656Z,41.73
2023-03-12T01:18:31.099Z,41.05
2023-03-12T01:21:01.612Z,42.30
2023-03-12T01:23:33.065Z,43.03
2023-03-12T01:26:04.177Z,42.91
2023-03-12T01:28:35.383Z,44.90
2023-03-12T01:31:09.837Z,43.21
2023-03-12T01:33:42.419Z,42.99
2023-03-12T01:36:19.807Z,43.35
2023-03-12T01:38:51.834Z,43.81
2023-03-12T01:41:23.339Z,44.54
2023-03-12T01:43:53.648Z,43.98
2023-03-12T01:46:33.141Z,44.14
2023-03-12T01:49:10.237Z,43.78
2023-03-12T01:51:43.908Z,44.75
2023-03-12T01:54:18.087Z,45.32
2023-03-12T01:56:49.100Z,46.18
2023-03-12T01:59:22.490Z,45.76
2023-03-12T02:01:53.254Z,45.70
2023-03-12T02:04:28.684Z,45.56
2023-03-12T02:07:04.957Z,45.58
2023-03-12T02:09:36.944Z,45.75
2023-03-12T02:12:07.959Z,45.48
2023-03-12T02:14:39.524Z,45.61
2023-03-12T02:17:11.367Z,45.88
2023-03-12T02:19:48.983Z,46.17
2023-03-12T02:22:19.592Z,46.01
2023-03-12T02:24:54.852Z,45.66
2023-03-12T02:27:28.390Z,45.62
2023-03-12T02:29:59.557Z,45.95
2023-03-12T02:32:33.362Z,46.33
2023-03-12T02:35:05.212Z,46.56
2023-03-12T02:37:35.807Z,46.57
2023-03-12T02:40:11.876Z,48.07
2023-03-12T02:42:46.623Z,48.42
2023-03-12T02:45:16.657Z,47.47
2023-03-12T02:47:48.436Z,47.59
2023-03-12T02:50:19.249Z,47.86
2023-03-12T02:52:49.868Z,48.14
2023-03-12T02:55:22.858Z,48.14
2023-03-12T02:57:57.132Z,47.54
2023-03-12T03:00:32.666Z,47.29
2023-03-12T03:03:03.740Z,47.70
2023-03-12T03:05:37.582Z,47.01
2023-03-12T03:08:09.331Z,46.79
2023-03-12T03:10:41.283Z,47.04
2023-03-12T03:13:14.993Z,47.03
2023-03-12T03:15:46.769Z,46.94
2023-03-12T03:18:18.048Z,46.52
2023-03-12T03:20:48.825Z,47.27
2023-03-12T03:23:21.556Z,47.28
2023-03-12T03:25:54.096Z,47.16
2023-03-12T03:28:30.205Z,48.58
2023-03-12T03:31:03.111Z,48.34
2023-03-12T03:33:36.715Z,48.65
2023-03-12T03:36:10.133Z,48.22
2023-03-12T03:38:40.467Z,48.79
2023-03-12T03:41:11.654Z,48.34
2023-03-12T03:43:43.873Z,49.64
2023-03-12T03:46:14.604Z,48.73
2023-03-12T03:48:45.426Z,48.78
2023-03-12T03:51:16.480Z,49.05
2023-03-12T03:53:46.709Z,49.32
2023-03-12T03:56:19.018Z,49.88
2023-03-12T03:58:50.782Z,50.46
2023-03-12T04:01:21.602Z,50.67
2023-03-12T04:03:52.562Z,51.27
2023-03-12T04:06:23.692Z,51.40
2023-03-12T04:08:53.219Z,52.68
2023-03-12T04:11:25.006Z,51.39
2023-03-12T04:13:57.057Z,52.57
2023-03-12T04:16:27.687Z,52.82
2023-03-12T04:18:58.347Z,52.21
2023-03-12T04:21:28.655Z,51.09
2023-03-12T04:23:59.395Z,50.85
2023-03-12T04:26:31.061Z,49.93
2023-03-12T04:29:03.572Z,50.14
2023-03-12T04:31:34.827Z,49.68
2023-03-12T04:34:05.471Z,51.05
2023-03-12T04:36:35.650Z,50.53
2023-03-12T04:39:07.961Z,50.94
2023-03-12T04:41:39.541Z,50.32
2023-03-12T04:44:12.960Z,49.73
2023-03-12T04:46:44.710Z,49.15
2023-03-12T04:49:15.864Z,48.77
2023-03-12T04:51:47.059Z,48.68
2023-03-12T04:54:17.773Z,48.50
2023-03-12T04:56:48.292Z,49.73
2023-03-12T04:59:20.566Z,49.72
2023-03-12T05:01:52.572Z,48.95
2023-03-12T05:04:23.893Z,50.92
2023-03-12T05:06:54.774Z,51.98
2023-03-12T05:09:26.297Z,51.23
2023-03-12T05:11:57.334Z,51.42
2023-03-12T05:14:30.738Z,51.63
2023-03-12T05:17:01.432Z,50.29
2023-03-12T05:19:33.685Z,50.89
2023-03-12T05:22:06.497Z,49.32
2023-03-12T05:24:37.965Z,49.61
2023-03-12T05:27:12.226Z,49.22
2023-03-12T05:29:46.699Z,49.65
2023-03-12T05:32:18.478Z,49.76
2023-03-12T05:34:50.022Z,49.77
2023-03-12T05:37:21.412Z,49.15
2023-03-12T05:39:52.049Z,49.64
2023-03-12T05:42:23.792Z,50.08
2023-03-12T05:45:01.359Z,49.72
2023-03-12T05:47:32.691Z,49.18
2023-03-12T05:50:04.197Z,49.88
2023-03-12T05:52:34.872Z,50.02
2023-03-12T05:55:07.246Z,50.84
2023-03-12T05:57:38.904Z,49.96
2023-03-12T06:00:18.143Z,49.43
2023-03-12T06:02:49.028Z,49.91
2023-03-12T06:05:20.247Z,49.13
2023-03-12T06:07:53.371Z,51.51
2023-03-12T06:10:25.959Z,49.61
2023-03-12T06:12:58.807Z,51.00
2023-03-12T06:15:31.806Z,50.11
2023-03-12T06:18:02.056Z,50.73
2023-03-12T06:20:33.103Z,50.35
2023-03-12T06:23:03.675Z,51.97
2023-03-12T06:25:34.137Z,52.52
2023-03-12T06:28:04.491Z,51.46
2023-03-12T06:30:36.849Z,50.63
2023-03-12T06:33:09.477Z,50.14
2023-03-12T06:35:40.573Z,49.37
2023-03-12T06:38:15.640Z,50.28
2023-03-12T06:40:48.300Z,50.12
2023-03-12T06:43:18.862Z,48.98
2023-03-12T06:45:51.127Z,50.38
2023-03-12T06:48:22.148Z,51.74
2023-03-12T06:50:54.014Z,49.14
2023-03-12T06:53:25.530Z,49.22
2023-03-12T06:55:56.164Z,49.16
2023-03-12T06:58:26.385Z,49.92
2023-03-12T07:00:57.967Z,50.47
2023-03-12T07:03:28.474Z,51.39
2023-03-12T07:06:00.085Z,49.57
2023-03-12T07:08:32.061Z,49.78
2023-03-12T07:11:02.929Z,49.51
2023-03-12T07:13:34.507Z,50.11
2023-03-12T07:16:07.774Z,49.87
2023-03-12T07:18:40.206Z,49.44
2023-03-12T07:21:12.388Z,49.14
2023-03-12T07:23:43.043Z,49.37
2023-03-12T07:26:13.886Z,51.12
2023-03-12T07:28:44.339Z,50.56
2023-03-12T07:31:16.658Z,50.44
2023-03-12T07:33:47.473Z,51.38
2023-03-12T07:36:18.700Z,50.43
2023-03-12T07:38:49.861Z,51.25
2023-03-12T07:41:20.273Z,51.20
2023-03-12T07:43:50.900Z,51.16
2023-03-12T07:46:23.549Z,50.80
2023-03-12T07:48:54.155Z,50.90
2023-03-12T07:51:24.558Z,49.56
2023-03-12T07:53:55.557Z,50.06
2023-03-12T07:56:25.777Z,49.46
2023-03-12T07:58:57.379Z,51.19
2023-03-12T08:01:33.253Z,50.52
2023-03-12T08:04:05.272Z,49.27
2023-03-12T08:06:39.672Z,48.44
2023-03-12T08:09:10.172Z,48.40
2023-03-12T08:11:41.030Z,49.84
2023-03-12T08:14:12.427Z,49.64
2023-03-12T08:16:44.499Z,49.43
2023-03-12T08:19:15.329Z,49.25
2023-03-12T08:21:45.869Z,49.17
2023-03-12T08:24:16.386Z,49.68
2023-03-12T08:26:46.611Z,49.37
2023-03-12T08:29:18.045Z,49.71
2023-03-12T08:32:04.186Z,49.46
2023-03-12T08:34:35.600Z,48.75
2023-03-12T08:37:07.828Z,48.53
2023-03-12T08:39:38.910Z,49.26
2023-03-12T08:42:09.439Z,48.32
2023-03-12T08:44:40.435Z,47.72
2023-03-12T08:47:14.142Z,47.17
2023-03-12T08:49:47.842Z,48.58
2023-03-12T08:52:18.609Z,47.81
2023-03-12T08:54:49.294Z,47.88
2023-03-12T08:57:20.511Z,47.97
2023-03-12T08:59:51.236Z,47.50
2023-03-12T09:02:24.540Z,47.77
2023-03-12T09:04:56.481Z,48.70
2023-03-12T09:07:28.903Z,47.74
2023-03-12T09:10:01.691Z,47.41
2023-03-12T09:12:39.208Z,47.31
2023-03-12T09:15:12.541Z,47.28
2023-03-12T09:17:44.616Z,46.42
2023-03-12T09:20:16.079Z,46.69
2023-03-12T09:22:46.556Z,47.29
2023-03-12T09:25:17.453Z,47.02
2023-03-12T09:27:49.071Z,46.67
2023-03-12T09:30:22.118Z,47.96
2023-03-12T09:32:56.756Z,46.76
2023-03-12T09:35:27.019Z,45.99
2023-03-12T09:37:57.672Z,46.79
2023-03-12T09:40:31.812Z,46.76
2023-03-12T09:43:04.378Z,44.96
2023-03-12T09:45:40.254Z,45.81
2023-03-12T09:48:18.849Z,45.59
2023-03-12T09:50:51.535Z,45.01
2023-03-12T09:53:29.877Z,44.79
2023-03-12T09:56:02.015Z,43.31
2023-03-12T09:58:36.874Z,43.63
2023-03-12T10:01:15.613Z,44.23
2023-03-12T10:04:13.137Z,43.57
2023-03-12T10:06:51.568Z,43.35
2023-03-12T10:09:38.154Z,45.57
2023-03-12T10:12:17.231Z,44.43
2023-03-12T10:14:59.887Z,44.68
2023-03-12T10:17:50.469Z,44.07
2023-03-12T10:20:47.128Z,44.10
2023-03-12T10:23:25.504Z,43.59
2023-03-12T10:26:00.848Z,43.16
2023-03-12T10:28:36.547Z,43.12
2023-03-12T10:31:09.865Z,44.91
2023-03-12T10:33:46.129Z,43.51
2023-03-12T10:36:23.122Z,43.85
2023-03-12T10:38:54.987Z,43.71
2023-03-12T10:41:28.473Z,43.94
2023-03-12T10:44:02.630Z,42.90
2023-03-12T10:46:52.672Z,43.26
2023-03-12T10:49:30.416Z,42.41
2023-03-12T10:52:06.636Z,40.29
2023-03-12T10:54:41.206Z,41.48
2023-03-12T10:57:13.141Z,42.23
2023-03-12T10:59:44.995Z,40.87
2023-03-12T11:02:34.905Z,40.82
2023-03-12T11:05:09.851Z,41.71
2023-03-12T11:07:47.661Z,40.74
2023-03-12T11:10:30.047Z,40.72
2023-03-12T11:13:07.343Z,40.10
2023-03-12T11:15:43.297Z,40.47
2023-03-12T11:18:39.780Z,38.83
2023-03-12T11:21:22.771Z,40.34
2023-03-12T11:24:14.114Z,39.60
2023-03-12T11:27:01.006Z,38.56
2023-03-12T11:29:34.059Z,38.86
2023-03-12T11:32:10.999Z,39.95
2023-03-12T11:34:43.896Z,39.12
2023-03-12T11:37:23.879Z,39.18
2023-03-12T11:40:19.756Z,38.80
2023-03-12T11:43:15.509Z,37.47
2023-03-12T11:45:55.112Z,37.92
2023-03-12T11:48:31.804Z,38.55
2023-03-12T11:51:13.820Z,37.29
2023-03-12T11:54:02.365Z,38.55
2023-03-12T11:56:38.126Z,37.51
2023-03-12T11:59:41.742Z,37.95
2023-03-12T12:02:24.815Z,39.06
2023-03-12T12:05:25.417Z,37.02
2023-03-12T12:08:09.762Z,37.33
2023-03-12T12:10:53.147Z,37.07
2023-03-12T12:13:33.111Z,37.18
2023-03-12T12:16:20.759Z,37.72
2023-03-12T12:19:02.804Z,36.87
2023-03-12T12:21:47.913Z,37.07
2023-03-12T12:24:29.943Z,37.75
2023-03-12T12:27:04.158Z,37.34
2023-03-12T12:30:07.006Z,37.37
2023-03-12T12:32:50.057Z,37.30
2023-03-12T12:35:29.760Z,36.92
2023-03-12T12:38:03.732Z,36.07
2023-03-12T12:40:37.973Z,35.62
2023-03-12T12:43:18.954Z,35.69
2023-03-12T12:45:55.216Z,36.50
2023-03-12T12:48:29.664Z,36.08
2023-03-12T12:51:01.257Z,36.55
2023-03-12T12:53:38.385Z,35.50
2023-03-12T12:56:15.477Z,35.04
2023-03-12T12:59:23.828Z,35.77
2023-03-12T13:01:59.253Z,36.52
2023-03-12T13:04:33.533Z,35.86
2023-03-12T13:07:06.520Z,36.55
2023-03-12T13:09:45.231Z,37.75
2023-03-12T13:12:25.406Z,36.83
2023-03-12T13:14:59.693Z,36.75
2023-03-12T13:17:37.527Z,36.81
2023-03-12T13:20:17.750Z,36.12
2023-03-12T13:23:01.140Z,36.11
2023-03-12T13:25:47.834Z,37.60
2023-03-12T13:28:37.075Z,35.37
2023-03-12T13:31:39.413Z,36.24
2023-03-12T13:34:48.290Z,37.32
2023-03-12T13:37:52.879Z,36.29
2023-03-12T13:41:03.443Z,35.61
2023-03-12T13:43:58.527Z,34.96
2023-03-12T13:46:51.397Z,34.74
2023-03-12T13:49:24.090Z,34.00
2023-03-12T13:52:19.803Z,34.86
2023-03-12T13:55:04.468Z,34.68
2023-03-12T13:57:42.168Z,34.42
2023-03-12T14:00:20.325Z,34.35
2023-03-12T14:02:54.869Z,34.99
2023-03-12T14:05:25.995Z,34.31
2023-03-12T14:08:18.309Z,33.49
2023-03-12T14:11:03.263Z,33.22
2023-03-12T14:13:45.106Z,34.94
2023-03-12T14:16:23.219Z,35.36
2023-03-12T14:18:57.276Z,33.63
2023-03-12T14:21:34.794Z,34.19
2023-03-12T14:24:05.318Z,34.48
2023-03-12T14:26:39.002Z,34.68
2023-03-12T14:29:11.609Z,34.85
2023-03-12T14:31:42.872Z,35.50
2023-03-12T14:34:21.152Z,35.16
2023-03-12T14:36:58.032Z,35.47
2023-03-12T14:39:33.767Z,36.11
2023-03-12T14:42:08.091Z,35.01
2023-03-12T14:44:42.977Z,34.64
2023-03-12T14:47:18.932Z,35.19
2023-03-12T14:49:50.600Z,34.99
2023-03-12T14:52:27.036Z,34.96
2023-03-12T14:55:01.940Z,34.81
2023-03-12T14:57:35.184Z,34.99
2023-03-12T15:00:14.750Z,35.41
2023-03-12T15:02:48.833Z,34.70
2023-03-12T15:05:20.908Z,35.94
2023-03-12T15:07:53.326Z,35.94
2023-03-12T15:10:27.298Z,35.69
2023-03-12T15:13:02.311Z,36.19
2023-03-12T15:15:38.448Z,35.94
2023-03-12T15:18:11.706Z,35.65
2023-03-12T15:20:42.830Z,35.54
2023-03-12T15:23:15.644Z,35.85
2023-03-12T15:25:47.835Z,35.20
2023-03-12T15:28:39.109Z,35.34
2023-03-12T15:31:16.653Z,35.69
2023-03-12T15:33:47.530Z,36.44
2023-03-12T15:36:30.406Z,35.56
2023-03-12T15:39:06.469Z,36.29
2023-03-12T15:41:46.181Z,35.25
2023-03-12T15:44:23.503Z,36.15
2023-03-12T15:46:55.791Z,35.74
2023-03-12T15:49:28.711Z,37.74
2023-03-12T15:52:08.181Z,37.84
2023-03-12T15:54:41.335Z,37.32
2023-03-12T15:57:25.910Z,37.03
2023-03-12T16:00:25.395Z,37.85
2023-03-12T16:02:58.158Z,36.50
2023-03-12T16:05:34.983Z,36.86
2023-03-12T16:08:15.255Z,36.11
2023-03-12T16:10:46.427Z,36.36
2023-03-12T16:13:19.080Z,37.21
2023-03-12T16:15:52.430Z,37.43
2023-03-12T16:18:24.141Z,36.65
2023-03-12T16:20:56.896Z,37.13
2023-03-12T16:23:28.929Z,36.65
2023-03-12T16:26:02.923Z,37.22
2023-03-12T16:28:33.877Z,38.05
2023-03-12T16:31:13.913Z,37.59
2023-03-12T16:33:45.519Z,38.19
2023-03-12T16:36:18.307Z,38.67
2023-03-12T16:38:50.077Z,38.46
2023-03-12T16:41:21.702Z,38.98
2023-03-12T16:43:55.533Z,38.56
2023-03-12T16:46:32.334Z,39.23
2023-03-12T16:49:08.774Z,39.01
2023-03-12T16:51:42.985Z,39.32
2023-03-12T16:54:15.035Z,39.79
2023-03-12T16:56:54.271Z,40.21
2023-03-12T16:59:38.860Z,41.23
2023-03-12T17:02:19.012Z,42.19
2023-03-12T17:04:51.325Z,41.42
2023-03-12T17:07:22.116Z,41.56
2023-03-12T17:09:52.841Z,41.34
2023-03-12T17:12:27.471Z,41.36
2023-03-12T17:14:57.762Z,41.98
2023-03-12T17:17:31.222Z,41.36
2023-03-12T17:20:01.513Z,42.30
2023-03-12T17:22:33.197Z,43.09
2023-03-12T17:25:04.859Z,43.86
2023-03-12T17:27:35.703Z,43.67
2023-03-12T17:30:08.070Z,44.17
2023-03-12T17:32:40.600Z,43.41
2023-03-12T17:35:11.504Z,43.95
2023-03-12T17:37:43.701Z,44.81
2023-03-12T17:40:16.222Z,43.90
2023-03-12T17:42:46.946Z,44.16
2023-03-12T17:45:19.300Z,45.36
2023-03-12T17:47:51.827Z,44.82
2023-03-12T17:50:23.780Z,45.02
2023-03-12T17:52:54.339Z,44.95
2023-03-12T17:55:25.435Z,45.58
2023-03-12T17:57:56.312Z,45.58
2023-03-12T18:00:28.502Z,45.49
2023-03-12T18:03:01.548Z,45.33
2023-03-12T18:05:32.959Z,45.87
2023-03-12T18:08:04.184Z,46.14
2023-03-12T18:10:35.267Z,46.56
2023-03-12T18:13:05.757Z,47.46
2023-03-12T18:15:37.793Z,47.40
2023-03-12T18:18:11.370Z,47.67
2023-03-12T18:20:42.695Z,47.43
2023-03-12T18:23:15.030Z,46.93
2023-03-12T18:25:46.196Z,47.83
2023-03-12T18:28:17.574Z,47.85
2023-03-12T18:30:49.078Z,47.70
2023-03-12T18:33:21.214Z,48.48
2023-03-12T18:35:54.343Z,48.10
2023-03-12T18:38:25.412Z,48.13
2023-03-12T18:41:05.874Z,49.05
2023-03-12T18:43:37.745Z,48.75
2023-03-12T18:46:09.048Z,49.00
2023-03-12T18:48:44.029Z,48.38
2023-03-12T18:51:15.097Z,49.48
2023-03-12T18:53:46.610Z,50.13
2023-03-12T18:56:19.820Z,49.71
2023-03-12T18:58:49.894Z,49.81
2023-03-12T19:01:21.032Z,49.87
2023-03-12T19:03:53.868Z,49.01
2023-03-12T19:06:24.128Z,50.21
2023-03-12T19:08:56.748Z,49.20
2023-03-12T19:11:28.204Z,48.14
2023-03-12T19:13:58.539Z,48.32
2023-03-12T19:16:29.795Z,49.19
2023-03-12T19:19:01.807Z,49.68
2023-03-12T19:21:32.349Z,49.81
2023-03-12T19:24:02.333Z,49.66
2023-03-12T19:26:34.016Z,49.25
2023-03-12T19:29:07.298Z,49.35
2023-03-12T19:31:37.235Z,49.49
2023-03-12T19:34:10.638Z,50.96
2023-03-12T19:36:41.531Z,50.41
2023-03-12T19:39:21.133Z,49.43
2023-03-12T19:41:52.890Z,49.49
2023-03-12T19:44:23.199Z,49.58
2023-03-12T19:46:53.185Z,50.80
2023-03-12T19:49:25.345Z,51.06
2023-03-12T19:51:56.133Z,52.09
2023-03-12T19:54:27.796Z,51.42
2023-03-12T19:56:58.181Z,51.72
2023-03-12T19:59:28.679Z,51.33
2023-03-12T20:02:02.291Z,52.66
2023-03-12T20:04:42.216Z,53.53
2023-03-12T20:07:13.830Z,52.81
2023-03-12T20:09:44.699Z,53.58
2023-03-12T20:12:16.212Z,52.34
2023-03-12T20:14:49.699Z,51.61
2023-03-12T20:17:20.359Z,54.48
2023-03-12T20:19:53.709Z,55.29
2023-03-12T20:22:26.831Z,53.59
2023-03-12T20:24:58.995Z,52.56
2023-03-12T20:27:35.669Z,53.08
2023-03-12T20:30:06.596Z,54.56
2023-03-12T20:32:38.364Z,54.09
2023-03-12T20:35:11.864Z,53.98
2023-03-12T20:37:43.195Z,54.04
2023-03-12T20:40:16.226Z,53.97
2023-03-12T20:42:47.264Z,53.36
2023-03-12T20:45:18.704Z,55.59
2023-03-12T20:47:50.920Z,55.50
2023-03-12T20:50:23.109Z,54.56
2023-03-12T20:52:54.920Z,54.68
2023-03-12T20:55:26.274Z,53.82
2023-03-12T20:57:57.801Z,54.31
2023-03-12T21:00:30.343Z,53.17
2023-03-12T21:03:01.663Z,54.81
2023-03-12T21:05:34.795Z,54.29
2023-03-12T21:08:05.223Z,55.14
2023-03-12T21:10:40.950Z,55.77
2023-03-12T21:13:19.715Z,55.29
2023-03-12T21:15:53.997Z,54.15
2023-03-12T21:18:25.369Z,57.05
2023-03-12T21:21:04.211Z,55.85
2023-03-12T21:23:34.687Z,55.09
2023-03-12T21:26:09.425Z,54.37
2023-03-12T21:28:40.033Z,54.82
2023-03-12T21:31:15.010Z,56.21
2023-03-12T21:33:46.527Z,56.79
2023-03-12T21:36:21.517Z,56.13
2023-03-12T21:38:55.277Z,56.37
2023-03-12T21:41:27.557Z,56.64
2023-03-12T21:43:58.759Z,57.14
2023-03-12T21:46:31.161Z,56.99
2023-03-12T21:49:03.344Z,56.51
2023-03-12T21:51:39.039Z,55.61
2023-03-12T21:54:09.522Z,55.22
2023-03-12T21:56:42.073Z,56.45
2023-03-12T21:59:12.455Z,55.50
2023-03-12T22:01:43.631Z,55.69
2023-03-12T22:04:14.466Z,58.81
2023-03-12T22:06:47.474Z,55.65
2023-03-12T22:09:19.020Z,56.98
2023-03-12T22:11:49.417Z,55.76
2023-03-12T22:14:20.490Z,56.13
2023-03-12T22:16:51.831Z,55.60
2023-03-12T22:19:22.370Z,58.21
2023-03-12T22:21:55.332Z,56.01
2023-03-12T22:24:26.654Z,57.37
2023-03-12T22:26:57.450Z,58.73
2023-03-12T22:29:28.067Z,56.50
2023-03-12T22:31:59.430Z,58.31
2023-03-12T22:34:31.351Z,56.92
2023-03-12T22:37:03.336Z,57.60
2023-03-12T22:39:32.793Z,57.56
2023-03-12T22:42:03.193Z,58.26
2023-03-12T22:44:34.847Z,57.34
2023-03-12T22:47:06.812Z,56.88
2023-03-12T22:49:39.089Z,57.46
2023-03-12T22:52:12.415Z,56.57
2023-03-12T22:54:42.827Z,58.42
2023-03-12T22:57:13.885Z,57.11
2023-03-12T22:59:45.228Z,57.81
2023-03-12T23:02:16.019Z,57.45
2023-03-12T23:04:53.625Z,56.64
2023-03-12T23:07:27.705Z,56.91
2023-03-12T23:09:57.801Z,56.60
2023-03-12T23:12:28.507Z,57.11
2023-03-12T23:15:00.177Z,56.01
2023-03-12T23:17:31.376Z,55.73
2023-03-12T23:20:02.807Z,57.65
2023-03-12T23:22:36.560Z,57.06
2023-03-12T23:25:07.564Z,56.73
2023-03-12T23:27:39.530Z,57.27
2023-03-12T23:30:11.825Z,57.07
2023-03-12T23:32:42.640Z,57.47
2023-03-12T23:35:13.019Z,55.90
2023-03-12T23:37:45.740Z,56.89
2023-03-12T23:40:17.197Z,56.93
2023-03-12T23:42:49.093Z,56.32
2023-03-12T23:45:19.324Z,56.44
2023-03-12T23:47:49.457Z,57.20
2023-03-12T23:50:20.435Z,57.97
2023-03-12T23:52:53.404Z,57.29
2023-03-12T23:55:24.675Z,55.18
2023-03-12T23:57:55.061Z,57.63
